createdAt,value
2023-02-03T00:03:05.828Z,102410.69
2023-02-03T00:07:12.031Z,102399.19
2023-02-03T00:11:13.749Z,102393.22
2023-02-03T00:15:15.470Z,102405.81
2023-02-03T00:19:17.741Z,102397.94
2023-02-03T00:23:20.049Z,102388.34
2023-02-03T00:27:21.740Z,102399.00
2023-02-03T00:31:25.053Z,102400.72
2023-02-03T00:35:26.894Z,102420.09
2023-02-03T00:39:28.619Z,102430.75
2023-02-03T00:43:31.191Z,102427.09
2023-02-03T00:47:32.892Z,102422.53
2023-02-03T00:51:34.706Z,102413.47
2023-02-03T00:55:36.441Z,102400.16
2023-02-03T00:59:39.639Z,102409.00
2023-02-03T01:03:41.453Z,102397.38
2023-02-03T01:07:44.477Z,102389.38
2023-02-03T01:11:46.772Z,102407.03
2023-02-03T01:15:49.447Z,102396.38
2023-02-03T01:19:52.101Z,102407.66
2023-02-03T01:23:54.401Z,102386.13
2023-02-03T01:27:56.146Z,102370.03
2023-02-03T01:31:59.149Z,102356.47
2023-02-03T01:36:01.886Z,102360.97
2023-02-03T01:40:05.776Z,102359.97
2023-02-03T01:44:33.804Z,102378.53
2023-02-03T01:48:35.640Z,102381.06
2023-02-03T01:52:40.459Z,102375.66
2023-02-03T01:56:46.272Z,102379.88
2023-02-03T02:00:49.779Z,102360.16
2023-02-03T02:05:02.211Z,102349.63
2023-02-03T02:09:04.879Z,102353.00
2023-02-03T02:13:07.033Z,102335.19
2023-02-03T02:17:24.037Z,102322.72
2023-02-03T02:21:31.736Z,102344.91
2023-02-03T02:25:58.334Z,102335.94
2023-02-03T02:30:18.164Z,102343.94
2023-02-03T02:34:42.112Z,102346.59
2023-02-03T02:38:45.115Z,102354.59
2023-02-03T02:42:54.387Z,102343.19
2023-02-03T02:47:05.448Z,102353.84
2023-02-03T02:51:09.955Z,102347.66
2023-02-03T02:55:18.963Z,102353.13
2023-02-03T02:59:20.880Z,102314.00
2023-02-03T03:03:24.276Z,102314.09
2023-02-03T03:07:28.163Z,102313.16
2023-02-03T03:11:36.994Z,102327.19
2023-02-03T03:15:41.205Z,102297.88
2023-02-03T03:19:48.831Z,102317.38
2023-02-03T03:23:52.785Z,102323.69
2023-02-03T03:28:00.653Z,102337.00
2023-02-03T03:32:03.907Z,102325.50
2023-02-03T03:36:19.070Z,102337.84
2023-02-03T03:40:27.326Z,102309.53
2023-02-03T03:44:39.754Z,102320.19
2023-02-03T03:48:53.343Z,102327.31
2023-02-03T03:52:56.506Z,102340.75
2023-02-03T03:57:02.494Z,102333.63
2023-02-03T04:01:07.337Z,102331.06
2023-02-03T04:05:11.091Z,102345.38
2023-02-03T04:09:12.836Z,102357.09
2023-02-03T04:13:16.114Z,102349.00
2023-02-03T04:17:20.240Z,102350.91
2023-02-03T04:21:22.241Z,102347.53
2023-02-03T04:25:25.052Z,102330.69
2023-02-03T04:29:26.852Z,102345.09
2023-02-03T04:33:28.590Z,102353.09
2023-02-03T04:37:30.782Z,102353.09
2023-02-03T04:41:32.656Z,102353.94
2023-02-03T04:45:34.449Z,102347.75
2023-02-03T04:49:36.297Z,102353.94
2023-02-03T04:53:37.999Z,102354.78
2023-02-03T04:57:39.869Z,102354.78
2023-02-03T05:01:41.554Z,102343.28
2023-02-03T05:05:43.254Z,102342.44
2023-02-03T05:09:45.055Z,102345.19
2023-02-03T05:13:47.172Z,102339.03
2023-02-03T05:17:48.894Z,102345.31
2023-02-03T05:21:51.476Z,102360.56
2023-02-03T05:25:53.348Z,102362.28
2023-02-03T05:29:55.071Z,102349.81
2023-02-03T05:33:56.834Z,102361.44
2023-02-03T05:37:59.565Z,102353.53
2023-02-03T05:42:03.492Z,102349.28
2023-02-03T05:46:07.240Z,102346.00
2023-02-03T05:50:09.304Z,102349.78
2023-02-03T05:54:11.189Z,102345.28
2023-02-03T05:58:12.998Z,102359.59
2023-02-03T06:02:14.725Z,102358.84
2023-02-03T06:06:17.437Z,102358.13
2023-02-03T06:10:19.678Z,102361.94
2023-02-03T06:14:21.527Z,102355.06
2023-02-03T06:18:23.603Z,102353.47
2023-02-03T06:22:25.528Z,102370.50
2023-02-03T06:26:27.264Z,102356.47
2023-02-03T06:30:29.426Z,102376.03
2023-02-03T06:34:32.842Z,102382.44
2023-02-03T06:38:34.698Z,102379.88
2023-02-03T06:42:36.526Z,102395.00
2023-02-03T06:46:38.355Z,102401.16
2023-02-03T06:50:40.350Z,102415.22
2023-02-03T06:54:42.159Z,102402.66
2023-02-03T06:58:44.630Z,102402.47
2023-02-03T07:02:46.965Z,102410.34
2023-02-03T07:06:48.821Z,102408.41
2023-02-03T07:10:54.720Z,102417.88
2023-02-03T07:14:56.403Z,102429.28
2023-02-03T07:18:58.679Z,102418.41
2023-02-03T07:23:00.532Z,102415.72
2023-02-03T07:27:04.506Z,102412.31
2023-02-03T07:31:08.327Z,102417.66
2023-02-03T07:35:10.089Z,102423.72
2023-02-03T07:39:11.858Z,102409.44
2023-02-03T07:43:13.932Z,102420.09
2023-02-03T07:47:15.722Z,102416.44
2023-02-03T07:51:17.470Z,102419.88
2023-02-03T07:55:19.250Z,102419.88
2023-02-03T07:59:21.515Z,102437.31
2023-02-03T08:03:23.255Z,102431.88
2023-02-03T08:07:25.065Z,102441.47
2023-02-03T08:11:26.801Z,102452.00
2023-02-03T08:15:28.585Z,102454.56
2023-02-03T08:19:30.366Z,102472.44
2023-02-03T08:23:32.282Z,102471.50
2023-02-03T08:27:34.358Z,102462.66
2023-02-03T08:31:36.108Z,102451.13
2023-02-03T08:35:38.319Z,102476.84
2023-02-03T08:39:40.202Z,102482.88
2023-02-03T08:43:42.223Z,102465.00
2023-02-03T08:47:43.977Z,102470.09
2023-02-03T08:51:47.807Z,102491.16
2023-02-03T08:55:49.569Z,102497.97
2023-02-03T08:59:51.376Z,102488.91
2023-02-03T09:03:53.164Z,102491.34
2023-02-03T09:07:55.004Z,102516.94
2023-02-03T09:12:02.574Z,102510.50
2023-02-03T09:16:06.434Z,102523.72
2023-02-03T09:20:09.192Z,102491.53
2023-02-03T09:24:10.972Z,102518.81
2023-02-03T09:28:12.772Z,102523.03
2023-02-03T09:32:15.753Z,102517.47
2023-02-03T09:36:17.646Z,102510.22
2023-02-03T09:40:24.889Z,102535.91
2023-02-03T09:44:35.835Z,102538.34
2023-02-03T09:48:47.742Z,102552.53
2023-02-03T09:52:50.990Z,102547.91
2023-02-03T09:56:55.834Z,102566.50
2023-02-03T10:01:01.448Z,102551.97
2023-02-03T10:05:18.170Z,102564.31
2023-02-03T10:09:33.546Z,102574.75
2023-02-03T10:14:01.644Z,102570.91
2023-02-03T10:18:13.216Z,102592.84
2023-02-03T10:22:22.087Z,102588.16
2023-02-03T10:26:27.941Z,102591.56
2023-02-03T10:30:45.570Z,102591.31
2023-02-03T10:34:48.253Z,102596.41
2023-02-03T10:39:27.564Z,102606.88
2023-02-03T10:43:50.264Z,102604.81
2023-02-03T10:47:55.212Z,102600.09
2023-02-03T10:52:02.451Z,102607.88
2023-02-03T10:56:11.601Z,102610.34
2023-02-03T11:00:24.382Z,102615.41
2023-02-03T11:04:32.373Z,102612.50
2023-02-03T11:08:36.479Z,102608.78
2023-02-03T11:12:38.220Z,102624.88
2023-02-03T11:16:42.687Z,102622.97
2023-02-03T11:20:45.886Z,102617.50
2023-02-03T11:24:47.647Z,102611.22
2023-02-03T11:28:51.891Z,102615.69
2023-02-03T11:32:54.002Z,102621.75
2023-02-03T11:36:56.438Z,102629.53
2023-02-03T11:41:01.939Z,102618.03
2023-02-03T11:45:42.052Z,102615.22
2023-02-03T11:50:03.165Z,102626.13
2023-02-03T11:54:22.902Z,102618.38
2023-02-03T11:58:42.156Z,102613.03
2023-02-03T12:02:51.562Z,102619.09
2023-02-03T12:06:56.203Z,102634.13
2023-02-03T12:11:13.018Z,102615.44
2023-02-03T12:15:25.110Z,102619.09
2023-02-03T12:19:59.361Z,102624.19
2023-02-03T12:24:35.923Z,102640.22
2023-02-03T12:29:04.842Z,102650.88
2023-02-03T12:33:18.716Z,102636.56
2023-02-03T12:37:42.437Z,102626.75
2023-02-03T12:41:52.385Z,102638.16
2023-02-03T12:46:01.217Z,102645.31
2023-02-03T12:50:17.164Z,102648.09
2023-02-03T12:54:37.325Z,102646.03
2023-02-03T12:58:51.763Z,102640.00
2023-02-03T13:03:19.554Z,102653.66
2023-02-03T13:07:27.666Z,102662.50
2023-02-03T13:11:37.080Z,102677.69
2023-02-03T13:15:48.826Z,102677.13
2023-02-03T13:19:56.731Z,102692.09
2023-02-03T13:23:58.831Z,102687.44
2023-02-03T13:28:22.181Z,102698.53
2023-02-03T13:32:55.621Z,102715.09
2023-02-03T13:37:03.674Z,102707.19
2023-02-03T13:41:08.346Z,102704.00
2023-02-03T13:45:30.415Z,102718.50
2023-02-03T13:49:36.122Z,102704.41
2023-02-03T13:53:40.601Z,102697.31
2023-02-03T13:57:42.540Z,102701.75
2023-02-03T14:01:44.657Z,102706.25
2023-02-03T14:05:52.342Z,102714.88
2023-02-03T14:10:12.673Z,102717.31
2023-02-03T14:14:14.361Z,102722.44
2023-02-03T14:18:22.371Z,102717.97
2023-02-03T14:22:24.320Z,102722.44
2023-02-03T14:26:41.283Z,102716.25
2023-02-03T14:31:10.516Z,102723.28
2023-02-03T14:35:29.326Z,102735.84
2023-02-03T14:39:39.426Z,102736.75
2023-02-03T14:44:14.900Z,102754.44
2023-02-03T14:48:23.318Z,102751.75
2023-02-03T14:52:53.962Z,102748.25
2023-02-03T14:57:18.445Z,102752.72
2023-02-03T15:01:24.288Z,102761.66
2023-02-03T15:05:29.918Z,102755.50
2023-02-03T15:09:38.743Z,102754.63
2023-02-03T15:13:40.517Z,102749.31
2023-02-03T15:17:42.344Z,102751.22
2023-02-03T15:21:44.619Z,102759.34
2023-02-03T15:25:46.840Z,102760.19
2023-02-03T15:29:48.916Z,102766.47
2023-02-03T15:33:54.338Z,102776.16
2023-02-03T15:38:03.394Z,102769.25
2023-02-03T15:42:11.911Z,102773.72
2023-02-03T15:46:38.135Z,102779.03
2023-02-03T15:50:46.183Z,102776.63
2023-02-03T15:54:53.816Z,102785.56
2023-02-03T15:58:58.858Z,102773.41
2023-02-03T16:03:07.639Z,102786.84
2023-02-03T16:07:21.342Z,102780.03
2023-02-03T16:11:30.234Z,102793.44
2023-02-03T16:15:37.043Z,102786.63
2023-02-03T16:19:41.322Z,102796.53
2023-02-03T16:23:49.801Z,102797.72
2023-02-03T16:28:31.834Z,102803.44
2023-02-03T16:32:52.431Z,102812.59
2023-02-03T16:37:13.124Z,102810.34
2023-02-03T16:41:36.139Z,102814.38
2023-02-03T16:45:56.707Z,102819.13
2023-02-03T16:50:19.892Z,102824.66
2023-02-03T16:54:28.288Z,102840.81
2023-02-03T16:58:31.099Z,102840.94
2023-02-03T17:02:32.912Z,102858.81
2023-02-03T17:06:38.471Z,102849.13
2023-02-03T17:10:42.198Z,102857.22
2023-02-03T17:14:43.931Z,102859.97
2023-02-03T17:18:46.608Z,102866.16
2023-02-03T17:22:51.731Z,102871.47
2023-02-03T17:26:54.842Z,102879.69
2023-02-03T17:31:07.549Z,102892.13
2023-02-03T17:35:09.328Z,102891.38
2023-02-03T17:56:21.796Z,102928.22
2023-02-03T18:00:23.648Z,102924.72
2023-02-03T18:04:26.231Z,102925.78
2023-02-03T18:08:28.152Z,102931.97
2023-02-03T18:12:30.167Z,102940.91
2023-02-03T18:16:35.840Z,102940.91
2023-02-03T18:20:37.599Z,102947.94
2023-02-03T18:24:39.917Z,102962.94
2023-02-03T18:28:41.850Z,102982.44
2023-02-03T18:32:44.111Z,102972.63
2023-02-03T18:36:45.932Z,102990.44
2023-02-03T18:40:47.696Z,102988.63
2023-02-03T18:44:49.513Z,103000.22
2023-02-03T18:48:51.333Z,103007.25
2023-02-03T18:52:54.564Z,103010.88
2023-02-03T18:56:59.120Z,103015.25
2023-02-03T19:01:00.960Z,103019.63
2023-02-03T19:05:02.855Z,103016.97
2023-02-03T19:09:05.999Z,103031.22
2023-02-03T19:13:07.731Z,103039.41
2023-02-03T19:17:10.420Z,103047.31
2023-02-03T19:21:13.235Z,103054.50
2023-02-03T19:25:15.064Z,103049.28
2023-02-03T19:29:16.990Z,103047.59
2023-02-03T19:33:18.744Z,103057.47
2023-02-03T19:37:20.504Z,103065.63
2023-02-03T19:41:23.125Z,103067.44
2023-02-03T19:45:24.954Z,103067.56
2023-02-03T19:49:28.735Z,103076.56
2023-02-03T19:53:30.537Z,103075.91
2023-02-03T19:57:32.449Z,103077.22
2023-02-03T20:01:34.832Z,103080.81
2023-02-03T20:05:36.643Z,103085.56
2023-02-03T20:09:38.410Z,103085.75
2023-02-03T20:13:42.289Z,103086.72
2023-02-03T20:17:44.245Z,103092.88
2023-02-03T20:21:46.579Z,103086.44
2023-02-03T20:25:50.327Z,103094.22
2023-02-03T20:29:52.136Z,103104.09
2023-02-03T20:33:53.929Z,103099.16
2023-02-03T20:37:55.687Z,103106.53
2023-02-03T20:41:57.506Z,103116.50
2023-02-03T20:45:59.250Z,103109.66
2023-02-03T20:50:01.014Z,103115.31
2023-02-03T20:54:12.879Z,103109.34
2023-02-03T20:58:25.702Z,103098.78
2023-02-03T21:02:47.596Z,103112.34
2023-02-03T21:06:49.310Z,103116.81
2023-02-03T21:10:51.142Z,103127.28
2023-02-03T21:14:55.106Z,103133.47
2023-02-03T21:19:00.576Z,103139.53
2023-02-03T21:23:02.456Z,103142.13
2023-02-03T21:27:23.656Z,103139.53
2023-02-03T21:31:34.395Z,103147.44
2023-02-03T21:35:37.444Z,103141.34
2023-02-03T21:39:39.198Z,103140.47
2023-02-03T21:43:41.190Z,103141.44
2023-02-03T21:47:44.630Z,103135.44
2023-02-03T21:51:46.477Z,103136.34
2023-02-03T21:55:49.290Z,103145.47
2023-02-03T21:59:51.032Z,103145.66
2023-02-03T22:03:55.294Z,103148.47
2023-02-03T22:07:57.081Z,103143.34
2023-02-03T22:12:01.053Z,103154.94
2023-02-03T22:16:04.063Z,103156.81
2023-02-03T22:20:06.255Z,103154.31
2023-02-03T22:24:08.081Z,103165.91
2023-02-03T22:28:09.999Z,103166.84
2023-02-03T22:32:12.012Z,103177.47
2023-02-03T22:36:14.748Z,103177.47
2023-02-03T22:40:17.184Z,103181.06
2023-02-03T22:44:19.203Z,103186.56
2023-02-03T22:48:21.604Z,103191.09
2023-02-03T22:52:23.355Z,103193.91
2023-02-03T22:56:25.139Z,103201.91
2023-02-03T23:00:27.515Z,103209.88
2023-02-03T23:04:29.257Z,103204.66
2023-02-03T23:08:30.994Z,103211.78
2023-02-03T23:12:32.949Z,103209.28
2023-02-03T23:16:34.656Z,103206.44
2023-02-03T23:20:36.388Z,103207.38
2023-02-03T23:24:38.091Z,103219.81
2023-02-03T23:28:39.860Z,103225.22
2023-02-03T23:32:41.778Z,103223.50
2023-02-03T23:36:43.494Z,103224.28
2023-02-03T23:40:45.322Z,103238.41
2023-02-03T23:44:47.118Z,103244.56
2023-02-03T23:48:48.979Z,103237.31
2023-02-03T23:52:50.755Z,103248.81
2023-02-03T23:56:52.929Z,103237.31
